This is the latest recevied weather packets stored in our database for station/object F4JAB-11. If no packets are shown the sender has not sent any weather packets the latest 10 day(s).
| Time | Temp. | Humidity | Pressure | Rain* | Wind** | Luminosity | Snow |
|---|---|---|---|---|---|---|---|
| 1777908051 | 21.11° C | 49% | 1009.2 hPa | - | - | - | - |
| 1777895994 | 30° C | 44% | 1009.6 hPa | - | - | - | - |
| 1777865326 | 14.44° C | 49% | 999.2 hPa | - | - | - | - |
| 1777858124 | 15.56° C | 48% | 999.3 hPa | - | - | - | - |
| 1777846332 | 18.33° C | 48% | 999.7 hPa | - | - | - | - |
| 1777842731 | 18.89° C | 48% | 999.8 hPa | - | - | - | - |
| 1777839131 | 20.56° C | 47% | 999.2 hPa | - | - | - | - |
| 1777835530 | 22.22° C | 46% | 998.5 hPa | - | - | - | - |
| 1777810330 | 27.78° C | 51% | 1008.8 hPa | - | - | - | - |
| 1777807452 | 24.44° C | 55% | 1009.3 hPa | - | - | - | - |
| 1777804572 | 20° C | 54% | 1009.1 hPa | - | - | - | - |
| 1777801694 | 18.89° C | 52% | 1009.5 hPa | - | - | - | - |
| 1777795930 | 20° C | 52% | 1009.3 hPa | - | - | - | - |
| 1777786571 | 18.89° C | 57% | 1006.3 hPa | - | - | - | - |
| 1777782967 | 17.22° C | 44% | 998.8 hPa | - | - | - | - |
| 1777772165 | 17.78° C | 43% | 999.4 hPa | - | - | - | - |
| 1777764965 | 19.44° C | 42% | 1000.2 hPa | - | - | - | - |
| 1777761364 | 20° C | 42% | 1000.6 hPa | - | - | - | - |
| 1777758183 | 21.11° C | 41% | 1001 hPa | - | - | - | - |
| 1777754583 | 22.22° C | 41% | 1000.5 hPa | - | - | - | - |
| 1777751702 | 22.78° C | 40% | 1000.4 hPa | - | - | - | - |
| 1777748822 | 23.89° C | 40% | 1000.2 hPa | - | - | - | - |
| 1777745942 | 25.56° C | 39% | 1000.3 hPa | - | - | - | - |
| 1777743062 | 26.67° C | 40% | 1000.5 hPa | - | - | - | - |
| 1777740181 | 26.67° C | 41% | 1008.3 hPa | - | - | - | - |
* Rain since midnight (hover to see other rain measurements)
** Current wind speed in m/s (hover to see current wind gust speed)